sensor_id;sensor_type;location;lat;lon;timestamp;temperature;humidity
7325;DHT22;3703;48.016;7.802;2022-09-16T00:02:06;15.70;94.00
7325;DHT22;3703;48.016;7.802;2022-09-16T00:04:54;15.70;93.10
7325;DHT22;3703;48.016;7.802;2022-09-16T00:07:42;15.70;92.70
7325;DHT22;3703;48.016;7.802;2022-09-16T00:10:30;15.60;92.30
7325;DHT22;3703;48.016;7.802;2022-09-16T00:13:18;15.60;91.80
7325;DHT22;3703;48.016;7.802;2022-09-16T00:16:06;15.40;91.80
7325;DHT22;3703;48.016;7.802;2022-09-16T00:18:56;15.40;92.30
7325;DHT22;3703;48.016;7.802;2022-09-16T00:21:46;15.40;92.70
7325;DHT22;3703;48.016;7.802;2022-09-16T00:24:35;15.30;92.30
7325;DHT22;3703;48.016;7.802;2022-09-16T00:27:23;15.40;91.50
7325;DHT22;3703;48.016;7.802;2022-09-16T00:30:11;15.40;90.30
7325;DHT22;3703;48.016;7.802;2022-09-16T00:32:59;15.30;90.50
7325;DHT22;3703;48.016;7.802;2022-09-16T00:35:46;15.20;90.20
7325;DHT22;3703;48.016;7.802;2022-09-16T00:38:34;15.20;89.10
7325;DHT22;3703;48.016;7.802;2022-09-16T00:41:25;15.10;90.70
7325;DHT22;3703;48.016;7.802;2022-09-16T00:44:51;15.00;89.70
7325;DHT22;3703;48.016;7.802;2022-09-16T00:47:46;15.00;90.60
7325;DHT22;3703;48.016;7.802;2022-09-16T00:50:37;14.90;91.70
7325;DHT22;3703;48.016;7.802;2022-09-16T00:53:30;14.90;90.70
7325;DHT22;3703;48.016;7.802;2022-09-16T00:56:20;14.60;92.60
7325;DHT22;3703;48.016;7.802;2022-09-16T00:59:13;14.50;95.60
7325;DHT22;3703;48.016;7.802;2022-09-16T01:02:06;14.60;98.10
7325;DHT22;3703;48.016;7.802;2022-09-16T01:04:58;14.70;96.70
7325;DHT22;3703;48.016;7.802;2022-09-16T01:07:48;14.80;96.10
7325;DHT22;3703;48.016;7.802;2022-09-16T01:10:40;14.80;96.10
7325;DHT22;3703;48.016;7.802;2022-09-16T01:13:28;14.90;94.70
7325;DHT22;3703;48.016;7.802;2022-09-16T01:16:23;14.80;95.10
7325;DHT22;3703;48.016;7.802;2022-09-16T01:19:23;14.80;96.30
7325;DHT22;3703;48.016;7.802;2022-09-16T01:22:45;14.90;95.60
7325;DHT22;3703;48.016;7.802;2022-09-16T01:25:53;14.90;95.00
7325;DHT22;3703;48.016;7.802;2022-09-16T01:29:10;15.00;96.30
7325;DHT22;3703;48.016;7.802;2022-09-16T01:32:08;15.00;95.80
7325;DHT22;3703;48.016;7.802;2022-09-16T01:35:03;15.10;93.90
7325;DHT22;3703;48.016;7.802;2022-09-16T01:38:01;15.00;93.60
7325;DHT22;3703;48.016;7.802;2022-09-16T01:40:58;14.90;95.10
7325;DHT22;3703;48.016;7.802;2022-09-16T01:43:59;15.00;95.60
7325;DHT22;3703;48.016;7.802;2022-09-16T01:46:57;15.00;95.70
7325;DHT22;3703;48.016;7.802;2022-09-16T01:49:57;15.10;95.00
7325;DHT22;3703;48.016;7.802;2022-09-16T01:52:54;15.10;95.20
7325;DHT22;3703;48.016;7.802;2022-09-16T01:55:49;15.10;94.30
7325;DHT22;3703;48.016;7.802;2022-09-16T01:58:44;15.10;93.00
7325;DHT22;3703;48.016;7.802;2022-09-16T02:01:36;15.30;93.40
7325;DHT22;3703;48.016;7.802;2022-09-16T02:04:30;15.10;92.10
7325;DHT22;3703;48.016;7.802;2022-09-16T02:07:24;15.10;91.80
7325;DHT22;3703;48.016;7.802;2022-09-16T02:10:20;15.00;92.80
7325;DHT22;3703;48.016;7.802;2022-09-16T02:13:13;14.90;93.70
7325;DHT22;3703;48.016;7.802;2022-09-16T02:16:06;14.80;96.60
7325;DHT22;3703;48.016;7.802;2022-09-16T02:19:01;14.90;96.90
7325;DHT22;3703;48.016;7.802;2022-09-16T02:21:53;15.00;95.10
7325;DHT22;3703;48.016;7.802;2022-09-16T02:24:45;15.00;96.30
7325;DHT22;3703;48.016;7.802;2022-09-16T02:27:36;15.00;96.60
7325;DHT22;3703;48.016;7.802;2022-09-16T02:30:25;15.00;97.50
7325;DHT22;3703;48.016;7.802;2022-09-16T02:33:14;15.00;97.80
7325;DHT22;3703;48.016;7.802;2022-09-16T02:36:04;15.10;97.50
7325;DHT22;3703;48.016;7.802;2022-09-16T02:38:56;15.10;96.00
7325;DHT22;3703;48.016;7.802;2022-09-16T02:41:48;15.10;96.60
7325;DHT22;3703;48.016;7.802;2022-09-16T02:44:36;15.10;95.90
7325;DHT22;3703;48.016;7.802;2022-09-16T02:47:29;15.20;94.80
7325;DHT22;3703;48.016;7.802;2022-09-16T02:50:25;15.20;94.30
7325;DHT22;3703;48.016;7.802;2022-09-16T02:53:24;15.20;94.90
7325;DHT22;3703;48.016;7.802;2022-09-16T02:56:19;15.20;95.90
7325;DHT22;3703;48.016;7.802;2022-09-16T02:59:12;15.20;96.80
7325;DHT22;3703;48.016;7.802;2022-09-16T03:02:01;15.10;96.90
7325;DHT22;3703;48.016;7.802;2022-09-16T03:04:49;15.20;96.80
7325;DHT22;3703;48.016;7.802;2022-09-16T03:07:38;15.20;95.80
7325;DHT22;3703;48.016;7.802;2022-09-16T03:10:29;15.30;95.60
7325;DHT22;3703;48.016;7.802;2022-09-16T03:13:32;15.30;95.40
7325;DHT22;3703;48.016;7.802;2022-09-16T03:16:32;15.40;93.80
7325;DHT22;3703;48.016;7.802;2022-09-16T03:19:27;15.40;94.80
7325;DHT22;3703;48.016;7.802;2022-09-16T03:22:25;15.40;94.70
7325;DHT22;3703;48.016;7.802;2022-09-16T03:25:30;15.40;94.60
7325;DHT22;3703;48.016;7.802;2022-09-16T03:28:26;15.40;93.90
7325;DHT22;3703;48.016;7.802;2022-09-16T03:31:23;15.40;94.50
7325;DHT22;3703;48.016;7.802;2022-09-16T03:34:19;15.40;94.30
7325;DHT22;3703;48.016;7.802;2022-09-16T03:37:09;15.40;95.60
7325;DHT22;3703;48.016;7.802;2022-09-16T03:40:04;15.30;96.10
7325;DHT22;3703;48.016;7.802;2022-09-16T03:42:56;15.40;95.10
7325;DHT22;3703;48.016;7.802;2022-09-16T03:45:44;15.40;93.70
7325;DHT22;3703;48.016;7.802;2022-09-16T03:48:33;15.30;92.40
7325;DHT22;3703;48.016;7.802;2022-09-16T03:51:21;15.20;94.10
7325;DHT22;3703;48.016;7.802;2022-09-16T03:54:08;15.10;99.00
7325;DHT22;3703;48.016;7.802;2022-09-16T03:56:56;15.10;98.30
7325;DHT22;3703;48.016;7.802;2022-09-16T03:59:45;15.20;98.90
7325;DHT22;3703;48.016;7.802;2022-09-16T04:02:33;15.30;99.30
7325;DHT22;3703;48.016;7.802;2022-09-16T04:05:22;15.40;98.40
7325;DHT22;3703;48.016;7.802;2022-09-16T04:08:09;15.40;99.60
7325;DHT22;3703;48.016;7.802;2022-09-16T04:10:58;15.40;99.30
7325;DHT22;3703;48.016;7.802;2022-09-16T04:13:47;15.40;98.40
7325;DHT22;3703;48.016;7.802;2022-09-16T04:16:34;15.40;97.60
7325;DHT22;3703;48.016;7.802;2022-09-16T04:19:22;15.50;97.40
7325;DHT22;3703;48.016;7.802;2022-09-16T04:22:11;15.50;96.80
7325;DHT22;3703;48.016;7.802;2022-09-16T04:24:58;15.40;96.60
7325;DHT22;3703;48.016;7.802;2022-09-16T04:27:46;15.40;97.40
7325;DHT22;3703;48.016;7.802;2022-09-16T04:30:34;15.40;96.70
7325;DHT22;3703;48.016;7.802;2022-09-16T04:33:22;15.40;97.20
7325;DHT22;3703;48.016;7.802;2022-09-16T04:36:15;15.30;96.50
7325;DHT22;3703;48.016;7.802;2022-09-16T04:39:05;15.30;97.00
7325;DHT22;3703;48.016;7.802;2022-09-16T04:41:53;15.10;99.10
7325;DHT22;3703;48.016;7.802;2022-09-16T04:44:40;15.10;99.80
7325;DHT22;3703;48.016;7.802;2022-09-16T04:47:29;15.10;99.50
7325;DHT22;3703;48.016;7.802;2022-09-16T04:50:17;15.20;99.90
7325;DHT22;3703;48.016;7.802;2022-09-16T04:53:04;15.30;99.80
7325;DHT22;3703;48.016;7.802;2022-09-16T04:55:53;15.10;99.90
7325;DHT22;3703;48.016;7.802;2022-09-16T04:58:41;15.10;99.90
7325;DHT22;3703;48.016;7.802;2022-09-16T05:01:31;15.20;99.90
7325;DHT22;3703;48.016;7.802;2022-09-16T05:04:20;15.30;99.90
7325;DHT22;3703;48.016;7.802;2022-09-16T05:07:07;15.30;99.90
7325;DHT22;3703;48.016;7.802;2022-09-16T05:09:55;15.30;99.90
7325;DHT22;3703;48.016;7.802;2022-09-16T05:12:49;15.40;99.90
7325;DHT22;3703;48.016;7.802;2022-09-16T05:15:38;15.40;99.10
7325;DHT22;3703;48.016;7.802;2022-09-16T05:18:25;15.40;97.80
7325;DHT22;3703;48.016;7.802;2022-09-16T05:21:15;15.30;97.30
7325;DHT22;3703;48.016;7.802;2022-09-16T05:24:06;15.20;97.90
7325;DHT22;3703;48.016;7.802;2022-09-16T05:26:55;15.20;99.10
7325;DHT22;3703;48.016;7.802;2022-09-16T05:29:44;15.10;99.30
7325;DHT22;3703;48.016;7.802;2022-09-16T05:32:31;14.90;99.90
7325;DHT22;3703;48.016;7.802;2022-09-16T05:35:19;14.90;99.90
7325;DHT22;3703;48.016;7.802;2022-09-16T05:38:07;15.00;99.90
7325;DHT22;3703;48.016;7.802;2022-09-16T05:40:57;15.10;99.90
7325;DHT22;3703;48.016;7.802;2022-09-16T05:43:45;15.20;99.90
7325;DHT22;3703;48.016;7.802;2022-09-16T05:46:35;15.20;99.90
7325;DHT22;3703;48.016;7.802;2022-09-16T05:49:25;15.30;99.90
7325;DHT22;3703;48.016;7.802;2022-09-16T05:52:13;15.40;99.90
7325;DHT22;3703;48.016;7.802;2022-09-16T05:55:00;15.50;99.90
7325;DHT22;3703;48.016;7.802;2022-09-16T05:57:48;15.50;99.90
7325;DHT22;3703;48.016;7.802;2022-09-16T06:00:35;15.60;99.90
7325;DHT22;3703;48.016;7.802;2022-09-16T06:03:24;15.70;99.50
7325;DHT22;3703;48.016;7.802;2022-09-16T06:06:16;15.70;99.40
7325;DHT22;3703;48.016;7.802;2022-09-16T06:09:09;15.60;99.90
7325;DHT22;3703;48.016;7.802;2022-09-16T06:11:58;15.60;99.90
7325;DHT22;3703;48.016;7.802;2022-09-16T06:14:45;15.70;98.90
7325;DHT22;3703;48.016;7.802;2022-09-16T06:17:33;15.70;98.60
7325;DHT22;3703;48.016;7.802;2022-09-16T06:20:22;15.70;99.00
7325;DHT22;3703;48.016;7.802;2022-09-16T06:23:10;15.70;98.30
7325;DHT22;3703;48.016;7.802;2022-09-16T06:25:58;15.70;97.90
7325;DHT22;3703;48.016;7.802;2022-09-16T06:28:47;15.80;98.80
7325;DHT22;3703;48.016;7.802;2022-09-16T06:31:36;15.80;99.40
7325;DHT22;3703;48.016;7.802;2022-09-16T06:34:24;15.80;99.50
7325;DHT22;3703;48.016;7.802;2022-09-16T06:37:13;15.80;99.10
7325;DHT22;3703;48.016;7.802;2022-09-16T06:40:01;15.80;99.90
7325;DHT22;3703;48.016;7.802;2022-09-16T06:42:51;15.80;99.90
7325;DHT22;3703;48.016;7.802;2022-09-16T06:45:39;15.80;99.70
7325;DHT22;3703;48.016;7.802;2022-09-16T06:48:27;15.90;98.40
7325;DHT22;3703;48.016;7.802;2022-09-16T06:51:20;15.90;98.40
7325;DHT22;3703;48.016;7.802;2022-09-16T06:54:10;15.90;98.50
7325;DHT22;3703;48.016;7.802;2022-09-16T06:56:58;15.90;98.00
7325;DHT22;3703;48.016;7.802;2022-09-16T06:59:46;15.90;97.30
7325;DHT22;3703;48.016;7.802;2022-09-16T07:02:35;15.90;97.20
7325;DHT22;3703;48.016;7.802;2022-09-16T07:05:23;15.90;97.20
7325;DHT22;3703;48.016;7.802;2022-09-16T07:08:10;15.80;97.60
7325;DHT22;3703;48.016;7.802;2022-09-16T07:11:01;15.60;98.60
7325;DHT22;3703;48.016;7.802;2022-09-16T07:13:50;15.60;99.90
7325;DHT22;3703;48.016;7.802;2022-09-16T07:16:38;15.60;99.90
7325;DHT22;3703;48.016;7.802;2022-09-16T07:19:26;15.60;99.90
7325;DHT22;3703;48.016;7.802;2022-09-16T07:22:14;15.60;99.90
7325;DHT22;3703;48.016;7.802;2022-09-16T07:25:01;15.60;99.90
7325;DHT22;3703;48.016;7.802;2022-09-16T07:27:51;15.50;99.90
7325;DHT22;3703;48.016;7.802;2022-09-16T07:30:38;15.60;99.90
7325;DHT22;3703;48.016;7.802;2022-09-16T07:33:26;15.50;98.20
7325;DHT22;3703;48.016;7.802;2022-09-16T07:36:15;15.50;99.90
7325;DHT22;3703;48.016;7.802;2022-09-16T07:39:06;15.50;99.90
7325;DHT22;3703;48.016;7.802;2022-09-16T07:41:54;15.50;99.90
7325;DHT22;3703;48.016;7.802;2022-09-16T07:44:43;15.50;99.40
7325;DHT22;3703;48.016;7.802;2022-09-16T07:47:31;15.40;98.00
7325;DHT22;3703;48.016;7.802;2022-09-16T07:50:19;15.40;98.10
7325;DHT22;3703;48.016;7.802;2022-09-16T07:53:07;15.30;96.90
7325;DHT22;3703;48.016;7.802;2022-09-16T07:55:55;15.30;96.80
7325;DHT22;3703;48.016;7.802;2022-09-16T07:58:44;15.30;95.30
7325;DHT22;3703;48.016;7.802;2022-09-16T08:01:33;15.10;92.70
7325;DHT22;3703;48.016;7.802;2022-09-16T08:04:21;15.10;94.90
7325;DHT22;3703;48.016;7.802;2022-09-16T08:07:09;15.00;95.10
7325;DHT22;3703;48.016;7.802;2022-09-16T08:09:56;15.10;96.30
7325;DHT22;3703;48.016;7.802;2022-09-16T08:12:46;15.20;97.10
7325;DHT22;3703;48.016;7.802;2022-09-16T08:15:33;15.20;97.40
7325;DHT22;3703;48.016;7.802;2022-09-16T08:18:22;15.40;97.10
7325;DHT22;3703;48.016;7.802;2022-09-16T08:21:13;15.60;97.20
7325;DHT22;3703;48.016;7.802;2022-09-16T08:24:01;15.60;95.30
7325;DHT22;3703;48.016;7.802;2022-09-16T08:26:48;15.70;94.20
7325;DHT22;3703;48.016;7.802;2022-09-16T08:29:36;15.70;93.60
7325;DHT22;3703;48.016;7.802;2022-09-16T08:32:24;15.70;92.70
7325;DHT22;3703;48.016;7.802;2022-09-16T08:35:13;15.80;90.80
7325;DHT22;3703;48.016;7.802;2022-09-16T08:38:00;15.70;91.40
7325;DHT22;3703;48.016;7.802;2022-09-16T08:40:48;15.70;84.50
7325;DHT22;3703;48.016;7.802;2022-09-16T08:43:41;15.70;87.00
7325;DHT22;3703;48.016;7.802;2022-09-16T08:46:35;15.70;83.50
7325;DHT22;3703;48.016;7.802;2022-09-16T08:49:31;15.70;85.00
7325;DHT22;3703;48.016;7.802;2022-09-16T08:52:28;15.70;85.00
7325;DHT22;3703;48.016;7.802;2022-09-16T08:55:21;15.70;86.90
7325;DHT22;3703;48.016;7.802;2022-09-16T08:58:18;15.80;83.90
7325;DHT22;3703;48.016;7.802;2022-09-16T09:01:14;15.90;86.10
7325;DHT22;3703;48.016;7.802;2022-09-16T09:04:04;15.90;82.80
7325;DHT22;3703;48.016;7.802;2022-09-16T09:06:59;15.90;83.80
7325;DHT22;3703;48.016;7.802;2022-09-16T09:09:58;15.90;81.70
7325;DHT22;3703;48.016;7.802;2022-09-16T09:13:00;15.90;81.10
7325;DHT22;3703;48.016;7.802;2022-09-16T09:15:59;16.00;83.50
7325;DHT22;3703;48.016;7.802;2022-09-16T09:19:01;16.10;75.70
7325;DHT22;3703;48.016;7.802;2022-09-16T09:22:05;16.10;71.80
7325;DHT22;3703;48.016;7.802;2022-09-16T09:25:19;16.10;73.60
7325;DHT22;3703;48.016;7.802;2022-09-16T09:28:22;16.30;70.40
7325;DHT22;3703;48.016;7.802;2022-09-16T09:31:25;16.50;72.50
7325;DHT22;3703;48.016;7.802;2022-09-16T09:34:39;16.60;62.40
7325;DHT22;3703;48.016;7.802;2022-09-16T09:38:03;16.50;54.70
7325;DHT22;3703;48.016;7.802;2022-09-16T09:41:19;16.50;53.90
7325;DHT22;3703;48.016;7.802;2022-09-16T09:44:35;16.60;80.00
7325;DHT22;3703;48.016;7.802;2022-09-16T09:47:39;17.00;63.50
7325;DHT22;3703;48.016;7.802;2022-09-16T09:50:35;17.20;41.60
7325;DHT22;3703;48.016;7.802;2022-09-16T09:53:30;17.40;47.00
7325;DHT22;3703;48.016;7.802;2022-09-16T09:56:26;17.50;41.20
7325;DHT22;3703;48.016;7.802;2022-09-16T09:59:24;17.50;25.20
7325;DHT22;3703;48.016;7.802;2022-09-16T10:02:15;17.60;29.10
7325;DHT22;3703;48.016;7.802;2022-09-16T10:05:04;17.60;29.40
7325;DHT22;3703;48.016;7.802;2022-09-16T10:07:54;17.60;25.40
7325;DHT22;3703;48.016;7.802;2022-09-16T10:10:48;17.70;27.70
7325;DHT22;3703;48.016;7.802;2022-09-16T10:13:46;17.70;22.50
7325;DHT22;3703;48.016;7.802;2022-09-16T10:16:37;17.70;24.70
7325;DHT22;3703;48.016;7.802;2022-09-16T10:19:35;17.90;25.20
7325;DHT22;3703;48.016;7.802;2022-09-16T10:22:27;18.20;26.80
7325;DHT22;3703;48.016;7.802;2022-09-16T10:25:22;18.50;12.70
7325;DHT22;3703;48.016;7.802;2022-09-16T10:28:19;18.80;1.00
7325;DHT22;3703;48.016;7.802;2022-09-16T10:31:11;19.20;1.00
7325;DHT22;3703;48.016;7.802;2022-09-16T10:33:59;19.70;1.00
7325;DHT22;3703;48.016;7.802;2022-09-16T10:36:59;19.80;1.00
7325;DHT22;3703;48.016;7.802;2022-09-16T10:39:51;20.00;1.00
7325;DHT22;3703;48.016;7.802;2022-09-16T10:42:46;20.10;1.00
7325;DHT22;3703;48.016;7.802;2022-09-16T10:45:35;20.00;1.00
7325;DHT22;3703;48.016;7.802;2022-09-16T10:48:28;20.10;1.00
7325;DHT22;3703;48.016;7.802;2022-09-16T10:51:22;19.90;1.00
7325;DHT22;3703;48.016;7.802;2022-09-16T10:54:23;19.90;1.00
7325;DHT22;3703;48.016;7.802;2022-09-16T10:57:28;19.70;1.00
7325;DHT22;3703;48.016;7.802;2022-09-16T11:00:18;19.50;1.00
7325;DHT22;3703;48.016;7.802;2022-09-16T11:03:40;19.40;1.00
7325;DHT22;3703;48.016;7.802;2022-09-16T11:06:52;19.20;1.00
7325;DHT22;3703;48.016;7.802;2022-09-16T11:09:53;19.00;1.00
7325;DHT22;3703;48.016;7.802;2022-09-16T11:16:21;19.00;1.00
7325;DHT22;3703;48.016;7.802;2022-09-16T11:19:22;19.10;1.00
7325;DHT22;3703;48.016;7.802;2022-09-16T11:22:19;19.00;1.00
7325;DHT22;3703;48.016;7.802;2022-09-16T11:25:24;18.70;1.00
7325;DHT22;3703;48.016;7.802;2022-09-16T11:28:36;18.30;1.00
7325;DHT22;3703;48.016;7.802;2022-09-16T11:31:39;18.10;1.00
7325;DHT22;3703;48.016;7.802;2022-09-16T11:34:43;17.90;1.00
7325;DHT22;3703;48.016;7.802;2022-09-16T11:37:46;17.70;1.00
7325;DHT22;3703;48.016;7.802;2022-09-16T11:40:45;17.30;1.00
7325;DHT22;3703;48.016;7.802;2022-09-16T11:47:15;17.00;16.40
7325;DHT22;3703;48.016;7.802;2022-09-16T11:50:21;17.00;21.00
7325;DHT22;3703;48.016;7.802;2022-09-16T11:53:37;17.00;21.50
7325;DHT22;3703;48.016;7.802;2022-09-16T11:56:35;17.70;15.30
7325;DHT22;3703;48.016;7.802;2022-09-16T11:59:30;16.80;5.30
7325;DHT22;3703;48.016;7.802;2022-09-16T12:02:25;16.60;10.70
7325;DHT22;3703;48.016;7.802;2022-09-16T12:05:19;16.60;15.60
7325;DHT22;3703;48.016;7.802;2022-09-16T12:08:21;16.60;20.80
7325;DHT22;3703;48.016;7.802;2022-09-16T12:11:19;16.60;1.30
7325;DHT22;3703;48.016;7.802;2022-09-16T12:14:13;16.40;1.00
7325;DHT22;3703;48.016;7.802;2022-09-16T12:17:06;16.60;26.00
7325;DHT22;3703;48.016;7.802;2022-09-16T12:19:57;16.80;23.60
7325;DHT22;3703;48.016;7.802;2022-09-16T12:22:51;16.70;28.10
7325;DHT22;3703;48.016;7.802;2022-09-16T12:25:46;16.70;16.20
7325;DHT22;3703;48.016;7.802;2022-09-16T12:28:42;16.50;16.90
7325;DHT22;3703;48.016;7.802;2022-09-16T12:31:35;16.30;9.40
7325;DHT22;3703;48.016;7.802;2022-09-16T12:34:28;16.20;3.10
7325;DHT22;3703;48.016;7.802;2022-09-16T12:37:31;16.30;38.20
7325;DHT22;3703;48.016;7.802;2022-09-16T12:40:25;16.50;38.40
7325;DHT22;3703;48.016;7.802;2022-09-16T12:47:14;16.50;16.10
7325;DHT22;3703;48.016;7.802;2022-09-16T12:50:36;16.30;12.70
7325;DHT22;3703;48.016;7.802;2022-09-16T12:54:00;16.00;11.10
7325;DHT22;3703;48.016;7.802;2022-09-16T12:57:14;16.50;19.20
7325;DHT22;3703;48.016;7.802;2022-09-16T13:00:15;15.90;17.30
7325;DHT22;3703;48.016;7.802;2022-09-16T13:03:16;15.60;8.40
7325;DHT22;3703;48.016;7.802;2022-09-16T13:06:17;15.60;19.40
7325;DHT22;3703;48.016;7.802;2022-09-16T13:09:17;15.50;16.30
7325;DHT22;3703;48.016;7.802;2022-09-16T13:12:19;15.70;26.30
7325;DHT22;3703;48.016;7.802;2022-09-16T13:15:19;15.90;32.40
7325;DHT22;3703;48.016;7.802;2022-09-16T13:18:24;16.20;29.30
7325;DHT22;3703;48.016;7.802;2022-09-16T13:21:26;16.30;17.30
7325;DHT22;3703;48.016;7.802;2022-09-16T13:24:27;16.50;7.00
7325;DHT22;3703;48.016;7.802;2022-09-16T13:27:30;16.30;1.00
7325;DHT22;3703;48.016;7.802;2022-09-16T13:30:40;16.80;27.30
7325;DHT22;3703;48.016;7.802;2022-09-16T13:33:27;17.10;13.60
7325;DHT22;3703;48.016;7.802;2022-09-16T13:36:29;17.20;8.30
7325;DHT22;3703;48.016;7.802;2022-09-16T13:39:28;17.30;4.20
7325;DHT22;3703;48.016;7.802;2022-09-16T13:42:17;17.50;1.00
7325;DHT22;3703;48.016;7.802;2022-09-16T13:45:33;17.70;7.00
7325;DHT22;3703;48.016;7.802;2022-09-16T13:48:24;17.80;1.00
7325;DHT22;3703;48.016;7.802;2022-09-16T13:51:16;17.60;1.00
7325;DHT22;3703;48.016;7.802;2022-09-16T13:54:18;17.40;1.60
7325;DHT22;3703;48.016;7.802;2022-09-16T13:57:22;17.20;10.70
7325;DHT22;3703;48.016;7.802;2022-09-16T14:00:19;17.00;14.90
7325;DHT22;3703;48.016;7.802;2022-09-16T14:03:25;16.90;15.00
7325;DHT22;3703;48.016;7.802;2022-09-16T14:06:43;16.90;4.20
7325;DHT22;3703;48.016;7.802;2022-09-16T14:09:40;16.80;13.30
7325;DHT22;3703;48.016;7.802;2022-09-16T14:12:40;16.80;14.90
7325;DHT22;3703;48.016;7.802;2022-09-16T14:15:34;16.70;15.90
7325;DHT22;3703;48.016;7.802;2022-09-16T14:18:27;16.70;1.00
7325;DHT22;3703;48.016;7.802;2022-09-16T14:21:18;16.70;14.80
7325;DHT22;3703;48.016;7.802;2022-09-16T14:24:13;16.70;22.80
7325;DHT22;3703;48.016;7.802;2022-09-16T14:27:02;16.70;13.50
7325;DHT22;3703;48.016;7.802;2022-09-16T14:29:55;16.50;1.00
7325;DHT22;3703;48.016;7.802;2022-09-16T14:32:44;16.20;1.00
7325;DHT22;3703;48.016;7.802;2022-09-16T14:35:34;16.20;1.00
7325;DHT22;3703;48.016;7.802;2022-09-16T14:38:29;15.90;1.00
7325;DHT22;3703;48.016;7.802;2022-09-16T14:41:23;15.90;3.80
7325;DHT22;3703;48.016;7.802;2022-09-16T14:44:19;15.80;1.00
7325;DHT22;3703;48.016;7.802;2022-09-16T14:47:16;15.90;1.80
7325;DHT22;3703;48.016;7.802;2022-09-16T14:50:09;15.70;1.00
7325;DHT22;3703;48.016;7.802;2022-09-16T14:53:01;15.60;10.20
7325;DHT22;3703;48.016;7.802;2022-09-16T14:55:49;15.50;19.00
7325;DHT22;3703;48.016;7.802;2022-09-16T14:58:37;15.30;24.00
7325;DHT22;3703;48.016;7.802;2022-09-16T15:01:26;15.20;24.00
7325;DHT22;3703;48.016;7.802;2022-09-16T15:04:17;15.10;18.10
7325;DHT22;3703;48.016;7.802;2022-09-16T15:07:13;15.10;26.00
7325;DHT22;3703;48.016;7.802;2022-09-16T15:10:06;15.20;15.00
7325;DHT22;3703;48.016;7.802;2022-09-16T15:12:57;15.20;16.40
7325;DHT22;3703;48.016;7.802;2022-09-16T15:15:49;15.20;14.00
7325;DHT22;3703;48.016;7.802;2022-09-16T15:18:42;15.20;25.70
7325;DHT22;3703;48.016;7.802;2022-09-16T15:21:33;15.30;27.80
7325;DHT22;3703;48.016;7.802;2022-09-16T15:24:24;15.40;25.10
7325;DHT22;3703;48.016;7.802;2022-09-16T15:27:25;15.20;26.40
7325;DHT22;3703;48.016;7.802;2022-09-16T15:30:20;15.20;33.00
7325;DHT22;3703;48.016;7.802;2022-09-16T15:33:22;16.00;33.40
7325;DHT22;3703;48.016;7.802;2022-09-16T15:36:32;15.20;39.70
7325;DHT22;3703;48.016;7.802;2022-09-16T15:39:24;15.40;39.80
7325;DHT22;3703;48.016;7.802;2022-09-16T15:42:16;15.30;41.90
7325;DHT22;3703;48.016;7.802;2022-09-16T15:45:14;15.40;47.40
7325;DHT22;3703;48.016;7.802;2022-09-16T15:48:08;15.20;37.90
7325;DHT22;3703;48.016;7.802;2022-09-16T15:51:04;15.20;39.90
7325;DHT22;3703;48.016;7.802;2022-09-16T15:53:57;15.10;50.00
7325;DHT22;3703;48.016;7.802;2022-09-16T15:56:53;15.00;52.20
7325;DHT22;3703;48.016;7.802;2022-09-16T15:59:53;15.00;46.60
7325;DHT22;3703;48.016;7.802;2022-09-16T16:02:54;16.00;53.50
7325;DHT22;3703;48.016;7.802;2022-09-16T16:05:50;15.00;50.40
7325;DHT22;3703;48.016;7.802;2022-09-16T16:08:43;15.00;46.20
7325;DHT22;3703;48.016;7.802;2022-09-16T16:11:32;14.80;44.70
7325;DHT22;3703;48.016;7.802;2022-09-16T16:14:20;14.70;51.20
7325;DHT22;3703;48.016;7.802;2022-09-16T16:17:11;14.70;49.90
7325;DHT22;3703;48.016;7.802;2022-09-16T16:20:02;14.80;50.70
7325;DHT22;3703;48.016;7.802;2022-09-16T16:22:50;14.80;47.50
7325;DHT22;3703;48.016;7.802;2022-09-16T16:25:37;14.70;46.80
7325;DHT22;3703;48.016;7.802;2022-09-16T16:28:25;14.70;49.10
7325;DHT22;3703;48.016;7.802;2022-09-16T16:31:14;14.70;50.90
7325;DHT22;3703;48.016;7.802;2022-09-16T16:34:03;14.70;57.80
7325;DHT22;3703;48.016;7.802;2022-09-16T16:36:52;14.80;54.40
7325;DHT22;3703;48.016;7.802;2022-09-16T16:39:40;14.80;55.90
7325;DHT22;3703;48.016;7.802;2022-09-16T16:42:27;14.80;59.60
7325;DHT22;3703;48.016;7.802;2022-09-16T16:45:15;14.60;61.70
7325;DHT22;3703;48.016;7.802;2022-09-16T16:48:03;14.60;64.40
7325;DHT22;3703;48.016;7.802;2022-09-16T16:50:55;14.60;66.00
7325;DHT22;3703;48.016;7.802;2022-09-16T16:53:46;14.60;63.60
7325;DHT22;3703;48.016;7.802;2022-09-16T16:56:35;14.60;62.90
7325;DHT22;3703;48.016;7.802;2022-09-16T16:59:25;14.60;68.90
7325;DHT22;3703;48.016;7.802;2022-09-16T17:02:13;14.40;69.50
7325;DHT22;3703;48.016;7.802;2022-09-16T17:05:01;14.40;69.70
7325;DHT22;3703;48.016;7.802;2022-09-16T17:07:49;14.40;66.00
7325;DHT22;3703;48.016;7.802;2022-09-16T17:10:38;14.40;67.90
7325;DHT22;3703;48.016;7.802;2022-09-16T17:13:27;14.50;64.60
7325;DHT22;3703;48.016;7.802;2022-09-16T17:16:16;15.50;62.10
7325;DHT22;3703;48.016;7.802;2022-09-16T17:19:05;14.70;57.60
7325;DHT22;3703;48.016;7.802;2022-09-16T17:21:53;14.80;51.30
7325;DHT22;3703;48.016;7.802;2022-09-16T17:24:42;14.70;46.30
7325;DHT22;3703;48.016;7.802;2022-09-16T17:27:31;14.80;48.60
7325;DHT22;3703;48.016;7.802;2022-09-16T17:30:19;14.80;48.80
7325;DHT22;3703;48.016;7.802;2022-09-16T17:33:07;14.90;47.30
7325;DHT22;3703;48.016;7.802;2022-09-16T17:36:03;14.90;47.20
7325;DHT22;3703;48.016;7.802;2022-09-16T17:38:54;15.00;56.60
7325;DHT22;3703;48.016;7.802;2022-09-16T17:41:43;15.00;59.30
7325;DHT22;3703;48.016;7.802;2022-09-16T17:44:35;15.00;60.70
7325;DHT22;3703;48.016;7.802;2022-09-16T17:47:22;15.10;58.90
7325;DHT22;3703;48.016;7.802;2022-09-16T17:50:10;15.10;66.40
7325;DHT22;3703;48.016;7.802;2022-09-16T17:52:58;15.10;63.90
7325;DHT22;3703;48.016;7.802;2022-09-16T17:55:46;15.10;61.50
7325;DHT22;3703;48.016;7.802;2022-09-16T17:58:36;15.10;69.90
7325;DHT22;3703;48.016;7.802;2022-09-16T18:01:26;15.10;63.20
7325;DHT22;3703;48.016;7.802;2022-09-16T18:04:15;15.20;61.20
7325;DHT22;3703;48.016;7.802;2022-09-16T18:07:03;15.10;58.50
7325;DHT22;3703;48.016;7.802;2022-09-16T18:09:50;15.10;54.70
7325;DHT22;3703;48.016;7.802;2022-09-16T18:12:38;15.10;46.20
7325;DHT22;3703;48.016;7.802;2022-09-16T18:15:26;14.40;21.80
7325;DHT22;3703;48.016;7.802;2022-09-16T18:18:14;15.00;7.60
7325;DHT22;3703;48.016;7.802;2022-09-16T18:21:05;14.90;1.00
7325;DHT22;3703;48.016;7.802;2022-09-16T18:23:58;14.90;1.00
7325;DHT22;3703;48.016;7.802;2022-09-16T18:26:47;14.90;1.00
7325;DHT22;3703;48.016;7.802;2022-09-16T18:29:34;14.80;1.00
7325;DHT22;3703;48.016;7.802;2022-09-16T18:32:22;14.80;1.00
7325;DHT22;3703;48.016;7.802;2022-09-16T18:35:11;14.80;1.00
7325;DHT22;3703;48.016;7.802;2022-09-16T18:37:58;14.70;1.00
7325;DHT22;3703;48.016;7.802;2022-09-16T18:40:46;14.70;1.00
7325;DHT22;3703;48.016;7.802;2022-09-16T18:43:34;14.80;1.00
7325;DHT22;3703;48.016;7.802;2022-09-16T18:46:23;14.70;1.00
7325;DHT22;3703;48.016;7.802;2022-09-16T18:49:13;14.70;1.00
7325;DHT22;3703;48.016;7.802;2022-09-16T18:52:03;14.70;1.00
7325;DHT22;3703;48.016;7.802;2022-09-16T18:54:51;14.60;1.00
7325;DHT22;3703;48.016;7.802;2022-09-16T18:57:38;14.40;1.00
7325;DHT22;3703;48.016;7.802;2022-09-16T19:00:26;14.40;1.00
7325;DHT22;3703;48.016;7.802;2022-09-16T19:03:13;14.40;1.00
7325;DHT22;3703;48.016;7.802;2022-09-16T19:06:01;14.30;1.00